createdAt,value
2023-07-12T00:00:43.159Z,15.40
2023-07-12T00:01:43.162Z,15.81
2023-07-12T00:02:43.187Z,15.79
2023-07-12T00:03:43.185Z,16.00
2023-07-12T00:04:43.158Z,15.46
2023-07-12T00:05:43.129Z,15.97
2023-07-12T00:06:43.091Z,15.38
2023-07-12T00:07:43.085Z,15.68
2023-07-12T00:08:43.095Z,15.60
2023-07-12T00:09:43.062Z,15.76
2023-07-12T00:10:43.053Z,16.31
2023-07-12T00:11:43.080Z,15.86
2023-07-12T00:12:43.036Z,15.76
2023-07-12T00:13:43.023Z,16.27
2023-07-12T00:14:43.022Z,16.19
2023-07-12T00:15:43.019Z,15.71
2023-07-12T00:16:43.012Z,15.53
2023-07-12T00:17:43.080Z,15.94
2023-07-12T00:18:43.024Z,15.60
2023-07-12T00:19:42.965Z,15.81
2023-07-12T00:20:42.955Z,15.61
2023-07-12T00:21:42.987Z,15.61
2023-07-12T00:22:42.941Z,15.46
2023-07-12T00:23:42.924Z,15.71
2023-07-12T00:24:42.916Z,16.03
2023-07-12T00:25:42.914Z,15.38
2023-07-12T00:26:42.922Z,15.35
2023-07-12T00:27:42.890Z,15.52
2023-07-12T00:28:42.877Z,16.11
2023-07-12T00:29:42.877Z,15.76
2023-07-12T00:30:42.880Z,15.68
2023-07-12T00:31:42.847Z,16.00
2023-07-12T00:32:42.859Z,15.71
2023-07-12T00:33:42.830Z,15.53
2023-07-12T00:34:42.821Z,15.30
2023-07-12T00:35:42.812Z,15.60
2023-07-12T00:36:42.804Z,15.46
2023-07-12T00:37:42.814Z,15.48
2023-07-12T00:38:42.782Z,15.89
2023-07-12T00:39:42.849Z,15.53
2023-07-12T00:40:42.778Z,15.48
2023-07-12T00:41:42.750Z,15.40
2023-07-12T00:42:42.742Z,15.60
2023-07-12T00:43:42.741Z,15.52
2023-07-12T00:44:42.722Z,15.60
2023-07-12T00:45:42.718Z,15.48
2023-07-12T00:46:42.743Z,15.61
2023-07-12T00:47:42.758Z,15.71
2023-07-12T00:48:42.691Z,15.71
2023-07-12T00:49:42.673Z,15.46
2023-07-12T00:50:42.664Z,15.97
2023-07-12T00:51:42.669Z,15.89
2023-07-12T00:52:42.646Z,15.38
2023-07-12T00:53:42.662Z,15.09
2023-07-12T00:54:42.626Z,15.53
2023-07-12T00:55:42.616Z,15.40
2023-07-12T00:56:42.625Z,15.32
2023-07-12T00:57:42.594Z,15.81
2023-07-12T00:58:42.587Z,15.53
2023-07-12T00:59:42.573Z,15.89
2023-07-12T01:00:42.601Z,15.61
2023-07-12T01:01:42.603Z,16.11
2023-07-12T01:02:42.601Z,16.21
2023-07-12T01:03:42.647Z,15.61
2023-07-12T01:04:42.542Z,15.84
2023-07-12T01:05:42.516Z,15.60
2023-07-12T01:06:42.502Z,16.27
2023-07-12T01:07:42.492Z,15.46
2023-07-12T01:08:42.488Z,15.27
2023-07-12T01:09:42.501Z,15.48
2023-07-12T01:10:42.465Z,15.71
2023-07-12T01:11:42.460Z,15.61
2023-07-12T01:12:42.445Z,15.60
2023-07-12T01:13:42.431Z,15.84
2023-07-12T01:14:42.423Z,16.13
2023-07-12T01:15:42.417Z,15.25
2023-07-12T01:16:42.532Z,15.43
2023-07-12T01:17:42.519Z,15.53
2023-07-12T01:18:42.451Z,16.04
2023-07-12T01:19:42.374Z,15.64
2023-07-12T01:20:42.367Z,15.43
2023-07-12T01:21:42.355Z,15.52
2023-07-12T01:22:42.346Z,15.94
2023-07-12T01:23:42.336Z,15.52
2023-07-12T01:24:42.330Z,15.76
2023-07-12T01:25:42.346Z,15.48
2023-07-12T01:26:42.308Z,15.43
2023-07-12T01:27:42.298Z,15.43
2023-07-12T01:28:42.290Z,15.53
2023-07-12T01:29:42.275Z,15.64
2023-07-12T01:30:42.280Z,15.68
2023-07-12T01:31:42.285Z,15.43
2023-07-12T01:32:42.345Z,16.00
2023-07-12T01:33:42.261Z,16.13
2023-07-12T01:34:42.257Z,15.64
2023-07-12T01:35:42.218Z,15.68
2023-07-12T01:36:42.212Z,16.55
2023-07-12T01:37:42.201Z,15.84
2023-07-12T01:38:42.194Z,16.04
2023-07-12T01:39:42.180Z,15.56
2023-07-12T01:40:42.182Z,15.60
2023-07-12T01:41:42.184Z,16.35
2023-07-12T01:42:42.150Z,16.11
2023-07-12T01:43:42.138Z,15.84
2023-07-12T01:44:42.140Z,15.60
2023-07-12T01:45:42.118Z,15.48
2023-07-12T01:46:42.192Z,15.68
2023-07-12T01:47:42.124Z,15.52
2023-07-12T01:48:42.093Z,16.04
2023-07-12T01:49:42.080Z,16.00
2023-07-12T01:50:42.072Z,15.68
2023-07-12T01:51:42.266Z,15.81
2023-07-12T01:52:42.062Z,15.52
2023-07-12T01:53:42.044Z,15.10
2023-07-12T01:54:42.032Z,15.76
2023-07-12T01:55:42.019Z,15.38
2023-07-12T01:56:42.013Z,15.38
2023-07-12T01:57:42.023Z,15.61
2023-07-12T01:58:41.998Z,15.48
2023-07-12T01:59:41.986Z,15.94
2023-07-12T02:00:41.977Z,15.60
2023-07-12T02:01:42.007Z,15.81
2023-07-12T02:02:42.027Z,15.61
2023-07-12T02:03:42.199Z,15.27
2023-07-12T02:04:41.933Z,16.04
2023-07-12T02:05:41.923Z,15.32
2023-07-12T02:06:41.917Z,15.53
2023-07-12T02:07:41.903Z,15.40
2023-07-12T02:08:41.897Z,15.48
2023-07-12T02:09:41.882Z,16.03
2023-07-12T02:10:41.877Z,15.60
2023-07-12T02:11:41.878Z,16.31
2023-07-12T02:12:41.858Z,15.60
2023-07-12T02:13:41.923Z,16.15
2023-07-12T02:14:41.837Z,15.97
2023-07-12T02:15:41.872Z,15.68
2023-07-12T02:16:41.819Z,15.22
2023-07-12T02:17:41.844Z,15.56
2023-07-12T02:18:41.838Z,15.56
2023-07-12T02:19:41.789Z,15.53
2023-07-12T02:20:41.779Z,15.89
2023-07-12T02:21:41.771Z,15.52
2023-07-12T02:22:41.758Z,15.89
2023-07-12T02:23:41.748Z,15.56
2023-07-12T02:24:41.745Z,15.40
2023-07-12T02:25:41.727Z,15.56
2023-07-12T02:26:41.720Z,15.94
2023-07-12T02:27:41.710Z,16.03
2023-07-12T02:28:41.703Z,16.19
2023-07-12T02:29:41.716Z,15.43
2023-07-12T02:30:41.685Z,15.68
2023-07-12T02:31:41.752Z,15.79
2023-07-12T02:32:41.715Z,15.72
2023-07-12T02:33:41.652Z,15.89
2023-07-12T02:34:41.645Z,15.61
2023-07-12T02:35:41.631Z,15.52
2023-07-12T02:36:41.633Z,15.81
2023-07-12T02:37:41.616Z,15.40
2023-07-12T02:38:41.603Z,15.84
2023-07-12T02:39:41.590Z,16.04
2023-07-12T02:40:41.585Z,15.22
2023-07-12T02:41:41.572Z,15.61
2023-07-12T02:42:41.567Z,15.84
2023-07-12T02:43:41.551Z,15.30
2023-07-12T02:44:41.541Z,15.72
2023-07-12T02:45:41.572Z,15.48
2023-07-12T02:46:41.525Z,16.13
2023-07-12T02:47:41.521Z,15.64
2023-07-12T02:48:41.502Z,15.40
2023-07-12T02:49:41.495Z,16.07
2023-07-12T02:50:41.490Z,15.35
2023-07-12T02:51:41.482Z,15.86
2023-07-12T02:52:41.477Z,15.30
2023-07-12T02:53:41.922Z,15.64
2023-07-12T02:54:41.445Z,15.56
2023-07-12T02:55:41.439Z,15.72
2023-07-12T02:56:41.433Z,15.68
2023-07-12T02:57:41.414Z,15.32
2023-07-12T02:58:41.454Z,15.53
2023-07-12T02:59:41.396Z,15.52
2023-07-12T03:00:41.389Z,15.56
2023-07-12T03:01:41.447Z,15.56
2023-07-12T03:02:41.389Z,15.46
2023-07-12T03:03:41.353Z,15.68
2023-07-12T03:04:41.399Z,15.46
2023-07-12T03:05:41.339Z,15.30
2023-07-12T03:06:41.333Z,15.43
2023-07-12T03:07:41.314Z,15.30
2023-07-12T03:08:41.304Z,15.38
2023-07-12T03:09:41.293Z,15.25
2023-07-12T03:10:41.288Z,15.84
2023-07-12T03:11:41.275Z,15.76
2023-07-12T03:12:41.263Z,16.03
2023-07-12T03:13:41.252Z,15.17
2023-07-12T03:14:41.242Z,15.79
2023-07-12T03:15:41.260Z,15.92
2023-07-12T03:16:41.244Z,15.48
2023-07-12T03:17:41.298Z,15.97
2023-07-12T03:18:41.324Z,16.00
2023-07-12T03:19:41.188Z,15.52
2023-07-12T03:20:41.180Z,15.89
2023-07-12T03:21:41.169Z,15.84
2023-07-12T03:22:41.169Z,15.48
2023-07-12T03:23:41.152Z,16.21
2023-07-12T03:24:41.142Z,15.56
2023-07-12T03:25:41.129Z,15.46
2023-07-12T03:26:41.125Z,15.53
2023-07-12T03:27:41.106Z,15.61
2023-07-12T03:28:41.096Z,15.60
2023-07-12T03:29:41.082Z,15.46
2023-07-12T03:30:41.141Z,15.97
2023-07-12T03:31:41.130Z,15.79
2023-07-12T03:32:41.058Z,16.35
2023-07-12T03:33:41.071Z,16.47
2023-07-12T03:34:41.039Z,15.84
2023-07-12T03:35:41.023Z,16.21
2023-07-12T03:36:41.013Z,15.60
2023-07-12T03:37:41.007Z,15.81
2023-07-12T03:38:41.004Z,16.21
2023-07-12T03:39:40.997Z,15.92
2023-07-12T03:40:40.974Z,16.07
2023-07-12T03:41:40.963Z,16.37
2023-07-12T03:42:40.955Z,15.94
2023-07-12T03:43:40.942Z,16.67
2023-07-12T03:44:40.934Z,16.37
2023-07-12T03:45:40.921Z,15.94
2023-07-12T03:46:40.942Z,15.97
2023-07-12T03:47:40.968Z,16.23
2023-07-12T03:48:40.893Z,16.35
2023-07-12T03:49:40.910Z,16.07
2023-07-12T03:50:40.868Z,16.39
2023-07-12T03:51:40.878Z,16.11
2023-07-12T03:52:40.849Z,16.19
2023-07-12T03:53:40.838Z,16.04
2023-07-12T03:54:40.825Z,16.62
2023-07-12T03:55:40.815Z,16.35
2023-07-12T03:56:40.804Z,16.59
2023-07-12T03:57:40.793Z,16.21
2023-07-12T03:58:40.780Z,16.19
2023-07-12T03:59:40.777Z,16.72
2023-07-12T04:00:40.775Z,16.67
2023-07-12T04:01:40.760Z,16.75
2023-07-12T04:02:40.774Z,16.82
2023-07-12T04:03:40.976Z,16.54
2023-07-12T04:04:40.720Z,16.78
2023-07-12T04:05:40.737Z,16.54
2023-07-12T04:06:40.704Z,16.55
2023-07-12T04:07:40.686Z,16.54
2023-07-12T04:08:40.677Z,16.62
2023-07-12T04:09:40.664Z,17.53
2023-07-12T04:10:40.831Z,16.96
2023-07-12T04:11:40.644Z,16.54
2023-07-12T04:12:40.634Z,16.86
2023-07-12T04:13:40.629Z,17.02
2023-07-12T04:14:40.628Z,17.29
2023-07-12T04:15:40.659Z,17.59
2023-07-12T04:16:40.675Z,16.64
2023-07-12T04:17:40.742Z,16.86
2023-07-12T04:18:40.617Z,16.98
2023-07-12T04:19:40.568Z,17.34
2023-07-12T04:20:40.745Z,18.38
2023-07-12T04:21:40.559Z,16.80
2023-07-12T04:22:40.526Z,17.02
2023-07-12T04:23:40.526Z,17.47
2023-07-12T04:24:40.511Z,17.02
2023-07-12T04:25:40.515Z,17.45
2023-07-12T04:26:40.484Z,17.04
2023-07-12T04:27:40.478Z,16.90
2023-07-12T04:28:40.487Z,17.18
2023-07-12T04:29:40.452Z,17.10
2023-07-12T04:30:40.453Z,17.63
2023-07-12T04:31:40.464Z,17.34
2023-07-12T04:32:40.512Z,17.45
2023-07-12T04:33:40.439Z,17.02
2023-07-12T04:34:40.407Z,17.67
2023-07-12T04:35:40.443Z,17.07
2023-07-12T04:36:40.378Z,17.29
2023-07-12T04:37:40.412Z,17.87
2023-07-12T04:38:40.360Z,17.31
2023-07-12T04:39:40.347Z,17.23
2023-07-12T04:40:40.338Z,17.42
2023-07-12T04:41:40.327Z,17.39
2023-07-12T04:42:40.321Z,17.75
2023-07-12T04:43:40.336Z,17.59
2023-07-12T04:44:40.300Z,17.15
2023-07-12T04:45:40.289Z,17.18
2023-07-12T04:46:40.332Z,17.02
2023-07-12T04:47:40.288Z,16.98
2023-07-12T04:48:40.251Z,17.39
2023-07-12T04:49:40.244Z,17.69
2023-07-12T04:50:40.235Z,17.31
2023-07-12T04:51:40.222Z,17.47
2023-07-12T04:52:40.209Z,17.67
2023-07-12T04:53:40.226Z,18.34
2023-07-12T04:54:40.192Z,17.59
2023-07-12T04:55:40.189Z,17.47
2023-07-12T04:56:40.174Z,17.39
2023-07-12T04:57:40.158Z,17.71
2023-07-12T04:58:40.146Z,17.53
2023-07-12T04:59:40.136Z,17.55
2023-07-12T05:00:40.162Z,18.10
2023-07-12T05:01:40.247Z,17.34
2023-07-12T05:02:40.143Z,18.04
2023-07-12T05:03:40.165Z,17.59
2023-07-12T05:04:40.088Z,17.61
2023-07-12T05:05:40.089Z,18.30
2023-07-12T05:06:40.062Z,17.34
2023-07-12T05:07:40.054Z,17.69
2023-07-12T05:08:40.037Z,17.93
2023-07-12T05:09:40.070Z,17.90
2023-07-12T05:10:40.027Z,17.47
2023-07-12T05:11:40.011Z,17.95
2023-07-12T05:12:39.999Z,18.02
2023-07-12T05:13:39.993Z,17.67
2023-07-12T05:14:39.977Z,17.87
2023-07-12T05:15:39.969Z,18.18
2023-07-12T05:16:39.955Z,17.69
2023-07-12T05:17:39.965Z,17.45
2023-07-12T05:18:39.968Z,17.59
2023-07-12T05:19:39.931Z,17.77
2023-07-12T05:20:39.915Z,17.47
2023-07-12T05:21:39.918Z,17.71
2023-07-12T05:22:39.905Z,18.22
2023-07-12T05:23:39.885Z,17.69
2023-07-12T05:24:39.874Z,17.61
2023-07-12T05:25:39.897Z,17.59
2023-07-12T05:26:39.850Z,17.79
2023-07-12T05:27:39.842Z,17.47
2023-07-12T05:28:39.836Z,18.36
2023-07-12T05:29:39.823Z,18.06
2023-07-12T05:30:39.827Z,18.14
2023-07-12T05:31:39.887Z,18.30
2023-07-12T05:32:39.816Z,17.87
2023-07-12T05:33:39.778Z,17.67
2023-07-12T05:34:39.773Z,18.46
2023-07-12T05:35:39.777Z,18.20
2023-07-12T05:36:39.754Z,17.63
2023-07-12T05:37:39.755Z,18.30
2023-07-12T05:38:39.727Z,17.53
2023-07-12T05:39:39.726Z,18.12
2023-07-12T05:40:39.705Z,18.02
2023-07-12T05:41:39.725Z,17.90
2023-07-12T05:42:39.694Z,18.06
2023-07-12T05:43:39.678Z,18.22
2023-07-12T05:44:39.664Z,18.30
2023-07-12T05:45:39.663Z,17.95
2023-07-12T05:46:39.669Z,17.75
2023-07-12T05:47:39.782Z,17.67
2023-07-12T05:48:39.622Z,17.39
2023-07-12T05:49:39.628Z,17.98
2023-07-12T05:50:39.602Z,18.14
2023-07-12T05:51:39.599Z,17.77
2023-07-12T05:52:39.616Z,17.82
2023-07-12T05:53:39.574Z,17.85
2023-07-12T05:54:39.568Z,17.95
2023-07-12T05:55:39.553Z,18.22
2023-07-12T05:56:39.554Z,17.63
2023-07-12T05:57:39.558Z,18.04
2023-07-12T05:58:39.520Z,17.95
2023-07-12T05:59:39.512Z,17.85
2023-07-12T06:00:39.528Z,17.90
2023-07-12T06:01:39.498Z,17.63
2023-07-12T06:02:39.582Z,17.87
2023-07-12T06:03:39.636Z,18.89
2023-07-12T06:04:39.468Z,18.22
2023-07-12T06:05:39.447Z,18.10
2023-07-12T06:06:39.454Z,18.10
2023-07-12T06:07:39.433Z,17.95
2023-07-12T06:08:39.426Z,17.87
2023-07-12T06:09:39.409Z,17.87
2023-07-12T06:10:39.394Z,17.85
2023-07-12T06:11:39.384Z,17.90
2023-07-12T06:12:39.389Z,18.06
2023-07-12T06:13:39.387Z,17.77
2023-07-12T06:14:39.372Z,17.85
2023-07-12T06:15:39.360Z,18.20
2023-07-12T06:16:39.599Z,18.02
2023-07-12T06:17:39.356Z,17.75
2023-07-12T06:18:39.387Z,18.34
2023-07-12T06:19:39.320Z,18.36
2023-07-12T06:20:39.297Z,18.18
2023-07-12T06:21:39.285Z,17.75
2023-07-12T06:22:39.268Z,17.82
2023-07-12T06:23:39.258Z,17.98
2023-07-12T06:24:39.252Z,17.77
2023-07-12T06:25:39.247Z,18.02
2023-07-12T06:26:39.228Z,17.90
2023-07-12T06:27:39.226Z,18.02
2023-07-12T06:28:39.210Z,17.98
2023-07-12T06:29:39.220Z,17.87
2023-07-12T06:30:39.231Z,17.95
2023-07-12T06:31:39.176Z,17.59
2023-07-12T06:32:39.236Z,18.04
2023-07-12T06:33:39.188Z,18.22
2023-07-12T06:34:39.148Z,18.06
2023-07-12T06:35:39.136Z,17.82
2023-07-12T06:36:39.139Z,17.95
2023-07-12T06:37:39.114Z,18.12
2023-07-12T06:38:39.102Z,18.26
2023-07-12T06:39:39.103Z,18.30
2023-07-12T06:40:39.086Z,17.98
2023-07-12T06:41:39.072Z,17.85
2023-07-12T06:42:39.060Z,18.20
2023-07-12T06:43:39.051Z,18.34
2023-07-12T06:44:39.039Z,18.12
2023-07-12T06:45:39.056Z,18.06
2023-07-12T06:46:39.104Z,18.53
2023-07-12T06:47:39.041Z,18.06
2023-07-12T06:48:38.999Z,18.02
2023-07-12T06:49:38.996Z,17.79
2023-07-12T06:50:38.977Z,17.90
2023-07-12T06:51:38.968Z,18.50
2023-07-12T06:52:38.956Z,17.95
2023-07-12T06:53:38.950Z,18.18
2023-07-12T06:54:38.935Z,18.34
2023-07-12T06:55:38.935Z,18.10
2023-07-12T06:56:38.923Z,17.82
2023-07-12T06:57:38.904Z,17.69
2023-07-12T06:58:38.892Z,17.90
2023-07-12T06:59:38.886Z,18.30
2023-07-12T07:00:38.872Z,17.90
2023-07-12T07:01:39.060Z,17.79
2023-07-12T07:02:38.874Z,17.87
2023-07-12T07:03:38.879Z,18.14
2023-07-12T07:04:38.831Z,17.69
2023-07-12T07:05:38.821Z,17.61
2023-07-12T07:06:38.815Z,18.36
2023-07-12T07:07:38.807Z,17.75
2023-07-12T07:08:38.817Z,17.87
2023-07-12T07:09:38.786Z,18.10
2023-07-12T07:10:38.772Z,17.95
2023-07-12T07:11:38.768Z,17.75
2023-07-12T07:12:38.747Z,18.28
2023-07-12T07:13:38.745Z,18.06
2023-07-12T07:14:38.726Z,18.10
2023-07-12T07:15:38.719Z,17.71
2023-07-12T07:16:38.786Z,17.87
2023-07-12T07:17:38.769Z,17.61
2023-07-12T07:18:38.776Z,18.34
2023-07-12T07:19:38.679Z,18.38
2023-07-12T07:20:38.663Z,18.38
2023-07-12T07:21:38.653Z,17.93
2023-07-12T07:22:38.644Z,18.46
2023-07-12T07:23:38.646Z,17.95
2023-07-12T07:24:38.621Z,18.12
2023-07-12T07:25:38.614Z,18.10
2023-07-12T07:26:38.608Z,18.34
2023-07-12T07:27:38.606Z,17.77
2023-07-12T07:28:38.580Z,17.87
2023-07-12T07:29:38.569Z,17.75
2023-07-12T07:31:38.596Z,17.87
2023-07-12T07:32:38.557Z,17.90
2023-07-12T07:33:38.566Z,17.93
2023-07-12T07:34:38.536Z,18.18
2023-07-12T07:35:38.512Z,18.02
2023-07-12T07:36:38.535Z,18.14
2023-07-12T07:37:38.486Z,17.90
2023-07-12T07:38:38.495Z,18.22
2023-07-12T07:39:38.520Z,17.98
2023-07-12T07:40:38.464Z,18.10
2023-07-12T07:41:38.445Z,17.77
2023-07-12T07:42:38.431Z,18.10
2023-07-12T07:43:38.428Z,19.20
2023-07-12T07:44:38.416Z,17.95
2023-07-12T07:45:38.411Z,18.20
2023-07-12T07:46:38.478Z,18.12
2023-07-12T07:47:38.443Z,18.77
2023-07-12T07:48:38.365Z,18.10
2023-07-12T07:49:38.384Z,18.26
2023-07-12T07:50:38.346Z,17.75
2023-07-12T07:51:38.338Z,18.34
2023-07-12T07:52:38.325Z,18.04
2023-07-12T07:53:38.317Z,17.82
2023-07-12T07:54:38.311Z,17.95
2023-07-12T07:55:38.296Z,17.95
2023-07-12T07:56:38.284Z,18.10
2023-07-12T07:57:38.293Z,17.95
2023-07-12T07:58:38.271Z,18.14
2023-07-12T07:59:38.256Z,18.10
2023-07-12T08:00:38.255Z,17.75
2023-07-12T08:01:38.232Z,18.22
2023-07-12T08:02:38.324Z,18.22
2023-07-12T08:03:38.367Z,18.22
2023-07-12T08:04:38.271Z,18.42
2023-07-12T08:05:38.299Z,18.06
2023-07-12T08:06:38.180Z,18.34
2023-07-12T08:07:38.173Z,18.10
2023-07-12T08:08:38.168Z,17.67
2023-07-12T08:09:38.151Z,17.95
2023-07-12T08:10:38.142Z,18.04
2023-07-12T08:11:38.130Z,18.04
2023-07-12T08:12:38.117Z,18.02
2023-07-12T08:13:38.106Z,17.93
2023-07-12T08:14:38.100Z,18.44
2023-07-12T08:15:38.092Z,17.71
2023-07-12T08:16:38.154Z,17.79
2023-07-12T08:17:38.081Z,18.12
2023-07-12T08:18:38.180Z,17.95
2023-07-12T08:19:38.045Z,17.95
2023-07-12T08:20:38.046Z,18.02
2023-07-12T08:21:38.073Z,17.79
2023-07-12T08:22:38.016Z,18.18
2023-07-12T08:23:38.011Z,18.38
2023-07-12T08:24:37.997Z,18.26
2023-07-12T08:25:37.985Z,18.12
2023-07-12T08:26:37.992Z,17.95
2023-07-12T08:27:37.964Z,17.98
2023-07-12T08:28:37.952Z,17.59
2023-07-12T08:29:37.947Z,18.22
2023-07-12T08:30:37.930Z,17.61
2023-07-12T08:31:37.987Z,17.75
2023-07-12T08:32:37.960Z,18.12
2023-07-12T08:33:37.898Z,18.02
2023-07-12T08:34:37.902Z,18.02
2023-07-12T08:35:47.424Z,17.67
2023-07-12T08:36:38.894Z,17.71
2023-07-12T08:37:38.064Z,17.95
2023-07-12T08:38:38.569Z,18.04
2023-07-12T08:39:37.835Z,17.82
2023-07-12T08:40:37.826Z,18.22
2023-07-12T08:41:37.814Z,18.44
2023-07-12T08:42:37.807Z,17.93
2023-07-12T08:43:37.794Z,18.22
2023-07-12T08:44:37.791Z,17.69
2023-07-12T08:45:37.806Z,17.77
2023-07-12T08:46:37.860Z,18.02
2023-07-12T08:47:37.779Z,17.75
2023-07-12T08:48:37.743Z,17.53
2023-07-12T08:49:37.732Z,18.77
2023-07-12T08:50:37.730Z,18.10
2023-07-12T08:51:37.714Z,18.02
2023-07-12T08:52:37.704Z,17.63
2023-07-12T08:53:37.724Z,17.93
2023-07-12T08:54:37.689Z,17.75
2023-07-12T08:55:37.715Z,17.82
2023-07-12T08:56:37.674Z,17.67
2023-07-12T08:57:37.652Z,17.77
2023-07-12T08:58:37.640Z,17.39
2023-07-12T08:59:37.635Z,18.18
2023-07-12T09:00:37.624Z,17.85
2023-07-12T09:01:37.624Z,18.14
2023-07-12T09:02:37.620Z,18.02
2023-07-12T09:03:37.596Z,17.63
2023-07-12T09:04:37.598Z,17.79
2023-07-12T09:05:37.569Z,17.59
2023-07-12T09:06:37.563Z,18.10
2023-07-12T09:07:37.547Z,18.22
2023-07-12T09:08:37.546Z,17.69
2023-07-12T09:09:37.581Z,18.06
2023-07-12T09:10:37.521Z,18.10
2023-07-12T09:11:37.506Z,18.10
2023-07-12T09:12:37.502Z,17.95
2023-07-12T09:13:37.486Z,17.71
2023-07-12T09:14:37.479Z,17.85
2023-07-12T09:15:37.469Z,17.98
2023-07-12T09:16:37.521Z,18.61
2023-07-12T09:17:37.471Z,17.71
2023-07-12T09:18:37.557Z,17.82
2023-07-12T09:19:37.434Z,17.82
2023-07-12T09:20:37.421Z,18.06
2023-07-12T09:21:37.420Z,18.04
2023-07-12T09:22:37.405Z,17.45
2023-07-12T09:23:37.391Z,17.79
2023-07-12T09:24:37.383Z,18.14
2023-07-12T09:25:37.418Z,17.63
2023-07-12T09:26:37.364Z,17.98
2023-07-12T09:27:37.352Z,17.85
2023-07-12T09:28:37.342Z,17.67
2023-07-12T09:29:37.332Z,17.93
2023-07-12T09:30:37.325Z,17.63
2023-07-12T09:31:37.403Z,17.82
2023-07-12T09:32:37.421Z,18.18
2023-07-12T09:33:37.294Z,17.87
2023-07-12T09:34:37.291Z,18.06
2023-07-12T09:35:37.276Z,17.69
2023-07-12T09:36:37.275Z,18.04
2023-07-12T09:37:37.302Z,17.87
2023-07-12T09:38:37.248Z,18.20
2023-07-12T09:39:37.234Z,18.12
2023-07-12T09:40:37.232Z,17.55
2023-07-12T09:41:37.246Z,18.02
2023-07-12T09:42:37.209Z,17.55
2023-07-12T09:43:37.197Z,17.87
2023-07-12T09:44:37.190Z,17.67
2023-07-12T09:45:37.216Z,17.95
2023-07-12T09:46:37.210Z,17.69
2023-07-12T09:47:37.241Z,17.79
2023-07-12T09:48:37.155Z,17.69
2023-07-12T09:49:37.140Z,18.06
2023-07-12T09:50:37.134Z,18.26
2023-07-12T09:51:38.263Z,18.20
2023-07-12T09:52:37.136Z,17.82
2023-07-12T09:53:37.099Z,17.42
2023-07-12T09:54:37.100Z,18.12
2023-07-12T09:55:37.092Z,17.75
2023-07-12T09:56:37.074Z,17.95
2023-07-12T09:57:38.457Z,18.10
2023-07-12T09:58:37.052Z,17.75
2023-07-12T09:59:37.053Z,17.79
2023-07-12T10:00:37.036Z,18.70
2023-07-12T10:01:37.059Z,17.53
2023-07-12T10:02:37.031Z,17.77
2023-07-12T10:03:37.005Z,17.53
2023-07-12T10:04:37.080Z,18.36
2023-07-12T10:05:37.012Z,17.61
2023-07-12T10:06:37.081Z,17.63
2023-07-12T10:07:36.966Z,17.93
2023-07-12T10:08:36.951Z,17.55
2023-07-12T10:09:36.935Z,18.02
2023-07-12T10:10:37.449Z,17.63
2023-07-12T10:11:36.921Z,17.77
2023-07-12T10:12:36.910Z,17.50
2023-07-12T10:13:36.933Z,17.53
2023-07-12T10:14:36.893Z,17.82
2023-07-12T10:15:36.876Z,17.90
2023-07-12T10:16:36.981Z,17.77
2023-07-12T10:17:36.903Z,17.98
2023-07-12T10:18:37.041Z,18.20
2023-07-12T10:19:36.840Z,17.39
2023-07-12T10:20:36.827Z,17.90
2023-07-12T10:21:36.816Z,17.47
2023-07-12T10:22:36.812Z,17.85
2023-07-12T10:23:36.794Z,17.82
2023-07-12T10:24:36.783Z,17.93
2023-07-12T10:25:36.774Z,18.12
2023-07-12T10:26:36.767Z,17.45
2023-07-12T10:27:36.754Z,17.42
2023-07-12T10:28:36.738Z,17.95
2023-07-12T10:29:36.759Z,18.02
2023-07-12T10:30:36.775Z,17.50
2023-07-12T10:31:36.809Z,17.53
2023-07-12T10:32:36.739Z,17.95
2023-07-12T10:33:36.684Z,18.12
2023-07-12T10:34:36.672Z,18.04
2023-07-12T10:35:36.664Z,17.98
2023-07-12T10:36:36.650Z,17.98
2023-07-12T10:37:36.638Z,17.47
2023-07-12T10:38:36.630Z,17.34
2023-07-12T10:39:36.616Z,17.55
2023-07-12T10:40:36.608Z,17.53
2023-07-12T10:41:36.597Z,17.61
2023-07-12T10:42:36.585Z,17.85
2023-07-12T10:43:36.575Z,17.93
2023-07-12T10:44:36.562Z,17.26
2023-07-12T10:45:36.587Z,17.79
2023-07-12T10:46:38.871Z,17.59
2023-07-12T10:47:36.566Z,18.10
2023-07-12T10:48:36.519Z,17.67
2023-07-12T10:49:36.516Z,18.02
2023-07-12T10:50:36.508Z,17.61
2023-07-12T10:51:36.503Z,17.71
2023-07-12T10:52:36.477Z,17.45
2023-07-12T10:53:36.775Z,17.39
2023-07-12T10:54:36.495Z,17.63
2023-07-12T10:55:36.473Z,17.53
2023-07-12T10:56:36.440Z,18.10
2023-07-12T10:57:36.418Z,17.50
2023-07-12T10:58:37.874Z,17.82
2023-07-12T10:59:36.395Z,17.95
2023-07-12T11:00:36.449Z,17.61
2023-07-12T11:01:36.409Z,17.90
2023-07-12T11:02:36.453Z,17.39
2023-07-12T11:03:36.381Z,17.63
2023-07-12T11:04:39.083Z,17.45
2023-07-12T11:05:36.336Z,17.18
2023-07-12T11:06:36.326Z,18.02
2023-07-12T11:07:36.317Z,17.04
2023-07-12T11:08:36.306Z,17.87
2023-07-12T11:09:36.294Z,17.61
2023-07-12T11:10:36.289Z,17.31
2023-07-12T11:11:36.277Z,17.47
2023-07-12T11:12:36.268Z,17.31
2023-07-12T11:13:36.255Z,17.37
2023-07-12T11:14:36.246Z,17.71
2023-07-12T11:15:36.242Z,17.10
2023-07-12T11:16:36.311Z,17.39
2023-07-12T11:17:36.269Z,17.67
2023-07-12T11:18:36.369Z,17.18
2023-07-12T11:19:36.214Z,17.39
2023-07-12T11:20:36.182Z,17.39
2023-07-12T11:21:36.174Z,17.61
2023-07-12T11:22:36.168Z,17.39
2023-07-12T11:23:36.165Z,17.29
2023-07-12T11:24:36.143Z,17.29
2023-07-12T11:25:36.131Z,17.20
2023-07-12T11:26:36.124Z,17.39
2023-07-12T11:27:36.111Z,17.39
2023-07-12T11:28:36.105Z,17.87
2023-07-12T11:29:36.087Z,17.42
2023-07-12T11:30:36.125Z,17.98
2023-07-12T11:31:36.109Z,17.77
2023-07-12T11:32:36.098Z,17.98
2023-07-12T11:33:36.080Z,17.39
2023-07-12T11:34:36.038Z,17.59
2023-07-12T11:35:36.032Z,17.15
2023-07-12T11:36:36.023Z,17.50
2023-07-12T11:37:36.005Z,17.20
2023-07-12T11:38:35.996Z,17.37
2023-07-12T11:39:35.985Z,17.55
2023-07-12T11:40:35.980Z,17.23
2023-07-12T11:41:35.969Z,17.47
2023-07-12T11:42:35.965Z,17.26
2023-07-12T11:43:35.941Z,17.23
2023-07-12T11:44:35.934Z,17.20
2023-07-12T11:45:35.924Z,17.23
2023-07-12T11:46:36.099Z,17.18
2023-07-12T11:47:36.013Z,17.04
2023-07-12T11:48:35.892Z,17.31
2023-07-12T11:49:35.919Z,17.95
2023-07-12T11:50:35.876Z,17.02
2023-07-12T11:51:35.866Z,17.18
2023-07-12T11:52:35.854Z,17.37
2023-07-12T11:53:35.837Z,18.10
2023-07-12T11:54:35.860Z,17.55
2023-07-12T11:55:35.818Z,17.50
2023-07-12T11:56:35.807Z,17.61
2023-07-12T11:57:35.806Z,17.69
2023-07-12T11:58:35.800Z,17.26
2023-07-12T11:59:35.777Z,17.26
2023-07-12T12:00:35.766Z,17.18
2023-07-12T12:01:35.764Z,17.37
2023-07-12T12:02:35.834Z,17.53
2023-07-12T12:03:35.776Z,17.20
2023-07-12T12:04:35.773Z,16.86
2023-07-12T12:05:35.754Z,17.02
2023-07-12T12:06:35.705Z,17.37
2023-07-12T12:07:35.694Z,17.29
2023-07-12T12:08:35.689Z,17.39
2023-07-12T12:09:35.683Z,17.23
2023-07-12T12:10:35.668Z,17.55
2023-07-12T12:11:35.656Z,17.02
2023-07-12T12:12:35.649Z,17.75
2023-07-12T12:13:35.643Z,17.23
2023-07-12T12:14:35.620Z,17.42
2023-07-12T12:15:35.609Z,17.39
2023-07-12T12:16:35.603Z,17.39
2023-07-12T12:17:35.713Z,17.07
2023-07-12T12:18:35.910Z,17.67
2023-07-12T12:19:36.025Z,17.67
2023-07-12T12:20:35.759Z,16.94
2023-07-12T12:21:35.787Z,17.04
2023-07-12T12:22:35.708Z,17.10
2023-07-12T12:23:35.526Z,17.12
2023-07-12T12:24:35.518Z,17.45
2023-07-12T12:25:35.507Z,17.45
2023-07-12T12:26:37.561Z,17.45
2023-07-12T12:27:35.496Z,17.10
2023-07-12T12:28:35.488Z,17.31
2023-07-12T12:29:35.467Z,17.23
2023-07-12T12:30:35.470Z,17.15
2023-07-12T12:31:35.453Z,17.63
2023-07-12T12:32:35.575Z,17.26
2023-07-12T12:33:35.424Z,17.04
2023-07-12T12:34:35.421Z,17.12
2023-07-12T12:35:35.409Z,17.55
2023-07-12T12:36:35.400Z,17.18
2023-07-12T12:37:35.414Z,17.59
2023-07-12T12:38:35.382Z,17.47
2023-07-12T12:39:35.361Z,16.90
2023-07-12T12:40:35.382Z,17.42
2023-07-12T12:41:35.343Z,17.10
2023-07-12T12:42:35.336Z,16.98
2023-07-12T12:43:35.323Z,17.26
2023-07-12T12:44:35.317Z,17.87
2023-07-12T12:45:35.302Z,17.71
2023-07-12T12:47:35.378Z,16.86
2023-07-12T12:53:28.507Z,17.71
2023-07-12T12:54:36.554Z,17.75
2023-07-12T12:56:57.179Z,16.90
2023-07-12T12:58:05.230Z,17.02
2023-07-12T13:05:35.702Z,17.04
2023-07-12T13:06:35.236Z,17.04
2023-07-12T13:07:53.854Z,17.29